Gulf Breeze, Florida
Current Conditions -  °F | °C
As of 5:53 AM on Tuesday 27 Jan 2015 (Local Time) from KPNS Reporting Station
Clear Clear  
Wind Chill: 42°   Ceiling: Unl
Heat Index: 47°   Visibility: 10mi
Dew Point: 35°   Wind: 10mph
Humidity: 63%   Direction: 270°W
Pressure: 30.01"   Gusts: NA
Location:  30.36°N, 87.17°W
Report Text: KPNS 271153Z 27009KT 10SM CLR 08/02 A3001 RMK AO2 SLP166 T00830017 10083 20056 55003
Loading
Personal Weather Stations






























Interactive Weather Map New forecast layout! Learn more

10-Day Weather Forecast

Advertisements
Track Severe Weather on mobile